Time;durP1;ratioP1;P1;durP2;ratioP2;P2;SDS_P1;SDS_P2;PMS_P1;PMS_P2;Temp;Humidity;BMP_temperature;BMP_pressure;BME280_temperature;BME280_humidity;BME280_pressure;Samples;Min_cycle;Max_cycle;Signal;HPM_P1;HPM_P2
2022/12/24 00:00:14;;;;;;;6.40;1.40;;;12.30;1.00;;;;;;5143788;27;20400;-53
2022/12/24 00:02:40;;;;;;;7.60;1.33;;;12.40;1.00;;;;;;5145281;27;20471;-57
2022/12/24 00:05:06;;;;;;;7.07;1.93;;;12.40;1.00;;;;;;5143517;27;20391;-52
2022/12/24 00:07:32;;;;;;;7.85;1.30;;;12.40;1.00;;;;;;5147295;27;20385;-53
2022/12/24 00:09:57;;;;;;;8.90;1.17;;;12.30;1.00;;;;;;5146589;27;20443;-52
2022/12/24 00:12:23;;;;;;;9.30;1.70;;;12.40;1.00;;;;;;5143643;27;20846;-52
2022/12/24 00:14:48;;;;;;;14.90;1.43;;;12.40;1.00;;;;;;5144920;27;20393;-54
2022/12/24 00:17:14;;;;;;;7.30;1.20;;;12.50;1.00;;;;;;5144909;27;20388;-53
2022/12/24 00:19:41;;;;;;;6.00;1.40;;;12.40;99.90;;;;;;5142672;27;20466;-53
2022/12/24 00:22:07;;;;;;;5.22;0.98;;;12.30;99.90;;;;;;5146285;27;20386;-53
2022/12/24 00:24:33;;;;;;;5.83;1.30;;;12.20;99.90;;;;;;5144015;27;20389;-55
2022/12/24 00:26:58;;;;;;;7.07;1.25;;;12.00;99.90;;;;;;5144064;27;20994;-55
2022/12/24 00:29:24;;;;;;;7.83;1.40;;;12.20;99.90;;;;;;5146465;27;20437;-55
2022/12/24 00:31:50;;;;;;;5.10;0.85;;;12.20;99.90;;;;;;5144104;27;20400;-55
2022/12/24 00:34:15;;;;;;;7.13;1.10;;;12.30;99.90;;;;;;5145232;27;20912;-55
2022/12/24 00:36:41;;;;;;;8.60;1.73;;;12.20;99.90;;;;;;5144118;27;20408;-60
2022/12/24 00:39:07;;;;;;;6.30;0.90;;;12.30;99.90;;;;;;5143664;27;20469;-55
2022/12/24 00:41:32;;;;;;;7.60;1.10;;;12.20;99.90;;;;;;5144025;27;20500;-55
2022/12/24 00:44:00;;;;;;;7.33;1.50;;;12.20;99.90;;;;;;5142342;27;20413;-56
2022/12/24 00:46:28;;;;;;;6.78;1.20;;;12.30;99.90;;;;;;5143055;27;20368;-53
2022/12/24 00:48:53;;;;;;;8.18;1.40;;;12.40;99.90;;;;;;5142982;27;20978;-52
2022/12/24 00:51:20;;;;;;;8.18;1.48;;;12.40;99.90;;;;;;5143984;27;20436;-53
2022/12/24 00:53:46;;;;;;;6.10;1.10;;;12.30;99.90;;;;;;5142321;27;20371;-53
2022/12/24 00:56:11;;;;;;;5.15;1.00;;;12.40;99.90;;;;;;5145719;27;20388;-53
2022/12/24 00:58:37;;;;;;;6.40;1.20;;;12.40;99.90;;;;;;5144778;27;20371;-53
2022/12/24 01:01:03;;;;;;;7.20;1.50;;;12.40;99.90;;;;;;5141370;27;20493;-53
2022/12/24 01:03:35;;;;;;;12.05;1.70;;;12.40;99.90;;;;;;5143406;27;20375;-53
2022/12/24 01:06:02;;;;;;;6.53;1.20;;;12.70;99.90;;;;;;5141344;27;20388;-54
2022/12/24 01:08:28;;;;;;;10.68;1.75;;;12.70;99.90;;;;;;5142986;27;20378;-52
2022/12/24 01:10:54;;;;;;;6.90;1.33;;;12.50;99.90;;;;;;5141666;27;20389;-53
2022/12/24 01:13:19;;;;;;;6.70;1.10;;;12.30;99.90;;;;;;5144387;27;20357;-55
2022/12/24 01:15:46;;;;;;;10.70;1.13;;;12.20;99.90;;;;;;5141070;27;20954;-54
2022/12/24 01:18:11;;;;;;;8.02;1.35;;;12.20;99.90;;;;;;5133650;27;20492;-54
2022/12/24 01:20:37;;;;;;;10.07;1.60;;;12.20;99.90;;;;;;5141814;27;20850;-53
2022/12/24 01:23:02;;;;;;;7.10;1.40;;;12.00;1.00;;;;;;5141821;27;20378;-53
2022/12/24 01:25:28;;;;;;;7.10;1.20;;;11.90;99.90;;;;;;5142310;27;20393;-53
2022/12/24 01:27:53;;;;;;;7.60;1.27;;;11.80;1.00;;;;;;5141614;27;20377;-54
2022/12/24 01:30:19;;;;;;;8.00;1.93;;;11.70;99.90;;;;;;5143786;27;20793;-54
2022/12/24 01:32:45;;;;;;;8.80;1.93;;;11.60;39.00;;;;;;5143189;27;20405;-54
2022/12/24 01:35:11;;;;;;;8.93;1.15;;;11.50;99.90;;;;;;5143040;27;20464;-54
2022/12/24 01:37:37;;;;;;;7.50;1.23;;;11.30;1.00;;;;;;5144758;27;20382;-53
2022/12/24 01:45:46;;;;;;;9.57;1.85;;;11.10;1.00;;;;;;5145657;27;20770;-53
2022/12/24 01:48:38;;;;;;;7.80;1.30;;;11.00;1.00;;;;;;5142469;27;20423;-53
2022/12/24 01:51:35;;;;;;;5.97;1.27;;;11.00;1.00;;;;;;5142746;27;20408;-56
2022/12/24 01:54:06;;;;;;;9.23;1.52;;;10.90;1.00;;;;;;5144652;27;20461;-53
2022/12/24 01:56:36;;;;;;;9.70;1.40;;;10.90;1.00;;;;;;5142512;27;20418;-54
2022/12/24 01:59:07;;;;;;;9.07;1.70;;;10.90;1.00;;;;;;5139164;27;20490;-53
2022/12/24 02:01:33;;;;;;;7.45;0.90;;;10.90;99.90;;;;;;5142210;27;20405;-53
2022/12/24 02:04:01;;;;;;;8.70;1.20;;;10.90;99.90;;;;;;5142266;27;20850;-53
2022/12/24 02:06:26;;;;;;;9.43;1.42;;;11.00;99.90;;;;;;5141820;27;20399;-53
2022/12/24 02:08:52;;;;;;;6.57;1.20;;;11.00;99.90;;;;;;5140972;27;20415;-53
2022/12/24 02:11:21;;;;;;;6.10;0.90;;;11.00;99.90;;;;;;5141468;27;20380;-53
2022/12/24 02:13:58;;;;;;;9.00;1.85;;;10.90;99.90;;;;;;5142142;27;20440;-55
2022/12/24 02:16:29;;;;;;;7.82;1.35;;;11.00;99.90;;;;;;5141361;27;20458;-55
2022/12/24 02:19:27;;;;;;;6.80;1.40;;;11.00;99.90;;;;;;5141161;27;20393;-55
2022/12/24 02:21:55;;;;;;;9.77;1.50;;;11.00;99.90;;;;;;5109751;27;20908;-55
2022/12/24 02:24:46;;;;;;;8.30;1.98;;;11.00;99.90;;;;;;5143351;27;20375;-55
2022/12/24 02:27:32;;;;;;;8.45;1.73;;;10.90;1.00;;;;;;5127097;27;20405;-57
2022/12/24 02:30:09;;;;;;;9.55;1.90;;;10.90;1.00;;;;;;5141701;27;20934;-53
2022/12/24 02:33:07;;;;;;;7.18;1.60;;;10.90;1.00;;;;;;5142093;27;20478;-55
2022/12/24 02:36:05;;;;;;;7.38;1.50;;;10.80;99.90;;;;;;5146294;27;20795;-54
2022/12/24 02:38:46;;;;;;;6.43;1.50;;;10.80;99.90;;;;;;5142059;27;20442;-54
2022/12/24 02:44:25;;;;;;;7.45;1.70;;;10.90;99.90;;;;;;5142588;27;20448;-54
2022/12/24 02:46:52;;;;;;;12.20;1.80;;;10.90;99.90;;;;;;5139452;27;20492;-54
2022/12/24 02:49:18;;;;;;;8.07;1.70;;;10.90;99.90;;;;;;5141732;27;20458;-55
2022/12/24 02:51:43;;;;;;;8.23;1.60;;;11.10;99.90;;;;;;5139790;27;20406;-54
2022/12/24 02:54:10;;;;;;;7.40;1.47;;;11.10;99.90;;;;;;5141914;27;20414;-54
2022/12/24 02:56:44;;;;;;;8.20;1.60;;;11.20;99.90;;;;;;5143087;27;20383;-54
2022/12/24 02:59:40;;;;;;;8.20;1.50;;;12.10;99.90;;;;;;5139304;27;20365;-54
2022/12/24 03:02:27;;;;;;;5.75;1.60;;;11.10;99.90;;;;;;5139797;27;20485;-55
2022/12/24 03:05:06;;;;;;;12.45;1.60;;;11.20;24.00;;;;;;5141117;27;20395;-54
2022/12/24 03:07:42;;;;;;;7.83;1.63;;;11.20;17.30;;;;;;5141508;27;20366;-57
2022/12/24 03:10:30;;;;;;;7.63;1.73;;;11.10;99.90;;;;;;5141904;27;20522;-54
2022/12/24 03:13:01;;;;;;;8.43;1.90;;;11.10;25.20;;;;;;5140897;27;20381;-54
2022/12/24 03:15:30;;;;;;;10.38;2.20;;;11.20;1.00;;;;;;5128749;27;20389;-55
2022/12/24 03:18:00;;;;;;;7.53;1.73;;;11.20;1.00;;;;;;5141115;27;20707;-55
2022/12/24 03:20:37;;;;;;;9.40;1.80;;;11.30;99.90;;;;;;5138003;27;20408;-54
2022/12/24 03:23:03;;;;;;;10.07;1.67;;;11.30;1.00;;;;;;5144047;27;20379;-57
2022/12/24 03:25:31;;;;;;;10.68;1.80;;;11.30;1.00;;;;;;5140727;27;20447;-54
2022/12/24 03:27:57;;;;;;;10.50;1.73;;;11.40;1.00;;;;;;5141587;27;20439;-54
2022/12/24 03:30:24;;;;;;;13.60;2.70;;;11.40;99.90;;;;;;5142257;27;20467;-54
2022/12/24 03:32:50;;;;;;;8.93;1.63;;;11.30;99.90;;;;;;5140103;27;20380;-54
2022/12/24 03:35:16;;;;;;;10.98;1.88;;;11.30;1.00;;;;;;5141373;27;20439;-54
2022/12/24 03:37:41;;;;;;;7.55;1.60;;;11.20;1.00;;;;;;5140428;27;20865;-54
2022/12/24 03:40:07;;;;;;;8.57;1.53;;;11.20;1.00;;;;;;5139100;27;20412;-54
2022/12/24 03:42:33;;;;;;;9.02;1.90;;;11.20;99.90;;;;;;5141955;27;20424;-54
2022/12/24 03:44:58;;;;;;;10.10;1.40;;;11.10;1.00;;;;;;5138675;27;20389;-54
2022/12/24 03:47:24;;;;;;;9.43;1.80;;;11.00;1.00;;;;;;5142084;27;20852;-54
2022/12/24 03:49:50;;;;;;;8.43;2.07;;;11.10;1.00;;;;;;5139964;27;20397;-54
2022/12/24 03:52:15;;;;;;;6.95;1.00;;;11.10;99.90;;;;;;5143214;27;20876;-54
2022/12/24 03:54:41;;;;;;;6.83;1.67;;;11.20;99.90;;;;;;5141711;27;20389;-55
2022/12/24 03:57:06;;;;;;;11.77;2.03;;;11.20;99.90;;;;;;5142196;27;20863;-54
2022/12/24 03:59:32;;;;;;;8.52;1.45;;;11.20;18.00;;;;;;5140315;27;20374;-53
2022/12/24 04:01:57;;;;;;;6.33;1.40;;;11.30;1.00;;;;;;5137778;27;20388;-52
2022/12/24 04:04:23;;;;;;;9.30;1.90;;;11.20;1.00;;;;;;5141711;27;20792;-55
2022/12/24 04:06:49;;;;;;;9.45;1.92;;;11.20;99.90;;;;;;5137739;27;20436;-55
2022/12/24 04:09:15;;;;;;;11.83;1.80;;;11.10;1.00;;;;;;5138926;27;20490;-56
2022/12/24 04:11:40;;;;;;;7.78;1.70;;;11.10;99.90;;;;;;5141062;27;20858;-53
2022/12/24 04:14:06;;;;;;;7.60;1.80;;;11.10;60.80;;;;;;5138510;27;20362;-52
2022/12/24 04:16:31;;;;;;;10.60;1.90;;;11.10;94.70;;;;;;5140369;27;20863;-53
2022/12/24 04:18:57;;;;;;;9.10;1.70;;;11.20;56.70;;;;;;5139130;27;20381;-53
2022/12/24 04:21:22;;;;;;;8.60;1.80;;;11.20;1.00;;;;;;5141476;27;20408;-53
2022/12/24 04:23:48;;;;;;;11.00;2.03;;;11.20;1.00;;;;;;5142580;27;20770;-53
2022/12/24 04:26:14;;;;;;;14.23;2.00;;;11.20;60.50;;;;;;5142679;27;20460;-53
2022/12/24 04:28:41;;;;;;;9.03;1.90;;;11.10;1.00;;;;;;5145407;27;20885;-53
2022/12/24 04:31:10;;;;;;;9.95;1.80;;;11.10;98.90;;;;;;5142375;27;20377;-53
2022/12/24 04:33:35;;;;;;;11.95;1.70;;;11.20;9.70;;;;;;5144343;27;20428;-54
2022/12/24 04:36:03;;;;;;;10.90;1.90;;;11.20;1.00;;;;;;5145729;27;20950;-53
2022/12/24 04:38:30;;;;;;;8.98;1.80;;;11.20;1.00;;;;;;5144259;27;20880;-53
2022/12/24 04:41:19;;;;;;;8.57;1.67;;;11.20;10.70;;;;;;5143013;27;20406;-53
2022/12/24 04:43:46;;;;;;;12.75;1.90;;;11.20;1.00;;;;;;5132580;27;20399;-57
2022/12/24 04:46:17;;;;;;;9.32;1.63;;;11.20;1.00;;;;;;5144132;27;20876;-53
2022/12/24 04:48:45;;;;;;;7.38;2.00;;;11.40;11.50;;;;;;5142348;27;20748;-54
2022/12/24 04:51:12;;;;;;;9.77;1.70;;;11.20;1.00;;;;;;5144842;27;20437;-54
2022/12/24 04:53:40;;;;;;;12.60;2.50;;;11.30;1.00;;;;;;5141466;27;21392;-53
2022/12/24 04:56:34;;;;;;;8.03;1.87;;;11.10;1.00;;;;;;5141906;27;20437;-53
2022/12/24 04:59:00;;;;;;;9.53;1.40;;;11.10;1.00;;;;;;5143700;27;20365;-54
2022/12/24 05:01:29;;;;;;;9.00;1.90;;;11.20;41.30;;;;;;5144487;27;20475;-53
2022/12/24 05:03:55;;;;;;;11.60;2.00;;;11.00;91.90;;;;;;5142825;27;20481;-53
2022/12/24 05:06:26;;;;;;;10.75;1.65;;;10.90;99.90;;;;;;5141941;27;20804;-53
2022/12/24 05:08:55;;;;;;;8.30;2.00;;;10.90;99.90;;;;;;5142875;27;20377;-53
2022/12/24 05:11:22;;;;;;;9.23;1.50;;;10.90;99.90;;;;;;5144793;27;20377;-54
2022/12/24 05:13:47;;;;;;;9.80;2.00;;;10.80;99.90;;;;;;5141649;27;20367;-53
2022/12/24 05:16:14;;;;;;;8.27;1.43;;;10.80;99.90;;;;;;5144228;27;20390;-55
2022/12/24 05:18:40;;;;;;;11.47;2.23;;;10.60;99.90;;;;;;5141965;27;20373;-55
2022/12/24 05:21:24;;;;;;;9.68;2.60;;;10.50;99.90;;;;;;5141248;27;20418;-55
2022/12/24 05:26:45;;;;;;;9.87;2.23;;;10.50;99.90;;;;;;5142606;27;20802;-54
2022/12/24 05:29:11;;;;;;;7.40;1.70;;;10.50;99.90;;;;;;5142389;27;20407;-54
2022/12/24 05:31:39;;;;;;;7.78;1.88;;;10.40;99.90;;;;;;5149150;27;20388;-54
2022/12/24 05:34:05;;;;;;;10.40;1.83;;;10.30;99.90;;;;;;5152792;27;20469;-55
2022/12/24 05:36:31;;;;;;;7.50;1.92;;;10.20;99.90;;;;;;5153401;27;20423;-53
2022/12/24 05:38:57;;;;;;;11.82;1.90;;;10.20;1.00;;;;;;5153053;27;20377;-53
2022/12/24 05:41:23;;;;;;;8.40;1.63;;;10.20;99.90;;;;;;5151679;27;20476;-55
2022/12/24 05:43:48;;;;;;;8.10;1.65;;;10.20;99.90;;;;;;5152907;27;20853;-53
2022/12/24 05:46:17;;;;;;;6.70;1.80;;;10.10;99.90;;;;;;5153741;27;20398;-55
2022/12/24 05:48:43;;;;;;;12.70;1.90;;;10.50;99.90;;;;;;5153354;27;20381;-56
2022/12/24 05:51:11;;;;;;;8.90;1.77;;;10.10;99.90;;;;;;5147894;27;20423;-56
2022/12/24 05:53:37;;;;;;;13.15;2.03;;;10.00;99.90;;;;;;5145284;27;20381;-56
2022/12/24 05:56:08;;;;;;;9.18;1.83;;;10.10;99.90;;;;;;5140654;27;20380;-55
2022/12/24 05:58:35;;;;;;;8.65;2.00;;;10.10;99.90;;;;;;5141609;27;20383;-55
2022/12/24 06:01:02;;;;;;;10.60;1.63;;;10.10;99.90;;;;;;5142359;27;20440;-55
2022/12/24 06:03:28;;;;;;;10.05;1.73;;;10.10;99.90;;;;;;5141267;27;20405;-57
2022/12/24 06:06:02;;;;;;;8.20;1.45;;;10.00;88.80;;;;;;5142598;27;20472;-55
2022/12/24 06:08:29;;;;;;;10.25;1.40;;;10.10;1.00;;;;;;5143096;27;20383;-56
2022/12/24 06:11:01;;;;;;;8.73;1.90;;;10.20;1.00;;;;;;5141854;27;20396;-55
2022/12/24 06:13:27;;;;;;;10.32;1.95;;;10.10;1.00;;;;;;5146690;27;20377;-53
2022/12/24 06:16:01;;;;;;;10.52;1.48;;;10.20;99.90;;;;;;5142200;27;20378;-55
2022/12/24 06:18:28;;;;;;;12.00;1.80;;;10.10;1.00;;;;;;5152619;27;20838;-57
2022/12/24 06:20:55;;;;;;;7.85;1.55;;;10.10;99.90;;;;;;5143118;27;20912;-56
2022/12/24 06:23:22;;;;;;;11.43;1.90;;;10.00;99.90;;;;;;5131780;27;20375;-57
2022/12/24 06:25:49;;;;;;;10.68;2.13;;;10.00;1.00;;;;;;5151784;27;20392;-63
2022/12/24 06:28:15;;;;;;;9.82;1.65;;;9.90;1.00;;;;;;5126987;27;20390;-55
2022/12/24 06:30:44;;;;;;;7.57;1.77;;;10.00;1.00;;;;;;5143401;27;20380;-55
2022/12/24 06:33:10;;;;;;;9.02;2.08;;;10.00;1.00;;;;;;5142441;27;20746;-56
2022/12/24 06:35:36;;;;;;;6.10;1.20;;;10.00;99.90;;;;;;5144282;27;20385;-57
2022/12/24 06:38:01;;;;;;;10.60;1.80;;;10.10;99.90;;;;;;5142223;27;20407;-57
2022/12/24 06:40:27;;;;;;;8.30;1.50;;;10.00;99.90;;;;;;5151987;27;20393;-58
2022/12/24 06:42:52;;;;;;;9.17;2.00;;;10.10;99.90;;;;;;5151351;27;20893;-56
2022/12/24 06:45:18;;;;;;;8.27;1.40;;;10.10;1.00;;;;;;5150465;27;20378;-56
2022/12/24 06:47:43;;;;;;;9.97;1.90;;;10.10;1.00;;;;;;5148958;27;20883;-59
2022/12/24 06:50:09;;;;;;;6.93;1.43;;;10.20;1.00;;;;;;5144694;27;20405;-57
2022/12/24 06:52:35;;;;;;;8.07;1.90;;;10.10;99.90;;;;;;5139306;27;20432;-62
2022/12/24 06:55:01;;;;;;;12.38;1.67;;;10.00;1.00;;;;;;5142608;27;20424;-60
2022/12/24 06:57:27;;;;;;;8.88;1.63;;;10.00;1.00;;;;;;5143169;27;20387;-58
2022/12/24 06:59:53;;;;;;;9.50;1.70;;;10.00;1.00;;;;;;5139818;27;20471;-57
2022/12/24 07:02:18;;;;;;;5.60;1.60;;;10.00;1.00;;;;;;5146364;27;20397;-55
2022/12/24 07:04:44;;;;;;;11.80;2.67;;;10.00;3.10;;;;;;5142153;27;20401;-56
2022/12/24 07:07:10;;;;;;;8.53;1.70;;;10.00;1.00;;;;;;5147984;27;20385;-55
2022/12/24 07:09:35;;;;;;;9.30;1.60;;;10.00;1.00;;;;;;5148262;27;20405;-54
2022/12/24 07:12:01;;;;;;;8.10;2.17;;;10.00;1.00;;;;;;5145422;27;20396;-53
2022/12/24 07:14:26;;;;;;;8.27;1.70;;;10.00;1.00;;;;;;5148211;27;20381;-53
2022/12/24 07:16:52;;;;;;;9.90;1.85;;;10.00;1.00;;;;;;5147948;27;20738;-54
2022/12/24 07:19:18;;;;;;;6.17;1.60;;;10.10;99.90;;;;;;5132139;27;20396;-53
2022/12/24 07:21:43;;;;;;;7.32;1.70;;;10.10;99.90;;;;;;5132290;27;20799;-53
2022/12/24 07:24:09;;;;;;;13.37;1.87;;;10.10;16.70;;;;;;5147330;27;20517;-54
2022/12/24 07:26:34;;;;;;;10.30;1.70;;;10.00;92.90;;;;;;5150698;27;20425;-54
2022/12/24 07:29:00;;;;;;;9.77;2.10;;;10.00;99.90;;;;;;5150484;27;20769;-53
2022/12/24 07:31:26;;;;;;;8.37;1.70;;;9.90;99.90;;;;;;5150571;27;20385;-53
2022/12/24 07:33:51;;;;;;;8.35;1.50;;;9.90;99.90;;;;;;5149229;27;20397;-55
2022/12/24 07:36:19;;;;;;;9.37;1.93;;;10.00;99.90;;;;;;5150463;27;20365;-53
2022/12/24 07:38:45;;;;;;;7.45;1.52;;;10.10;1.00;;;;;;5150765;27;20464;-53
2022/12/24 07:41:11;;;;;;;8.13;1.83;;;10.10;99.90;;;;;;5147495;27;20492;-56
2022/12/24 07:43:37;;;;;;;7.27;1.87;;;10.10;99.90;;;;;;5147961;27;20380;-54
2022/12/24 07:46:03;;;;;;;12.43;1.65;;;10.00;99.90;;;;;;5149777;27;20873;-53
2022/12/24 07:48:29;;;;;;;9.63;2.00;;;10.00;99.90;;;;;;5150642;27;20441;-53
2022/12/24 07:50:56;;;;;;;9.60;2.00;;;10.10;99.90;;;;;;5149939;27;20470;-53
2022/12/24 07:53:23;;;;;;;9.98;2.10;;;10.10;99.90;;;;;;5149331;27;20377;-54
2022/12/24 07:55:49;;;;;;;8.48;1.77;;;10.20;1.00;;;;;;5145848;27;20742;-58
2022/12/24 07:58:14;;;;;;;10.55;1.70;;;10.20;1.00;;;;;;5152183;27;20385;-53
2022/12/24 08:00:40;;;;;;;7.63;1.70;;;10.20;1.00;;;;;;5149848;27;20397;-53
2022/12/24 08:03:06;;;;;;;11.30;1.90;;;10.30;1.00;;;;;;5131995;27;20413;-53
2022/12/24 08:05:35;;;;;;;10.53;2.13;;;10.30;1.00;;;;;;5154790;27;20389;-56
2022/12/24 08:08:01;;;;;;;9.70;1.80;;;10.30;1.00;;;;;;5142586;27;20432;-53
2022/12/24 08:10:27;;;;;;;12.18;2.20;;;10.20;99.90;;;;;;5146153;27;20376;-53
2022/12/24 08:12:52;;;;;;;7.60;1.70;;;10.30;99.90;;;;;;5152337;27;20421;-54
2022/12/24 08:15:18;;;;;;;10.93;2.10;;;10.30;1.00;;;;;;5145604;27;20381;-53
2022/12/24 08:17:44;;;;;;;10.77;1.70;;;10.30;1.00;;;;;;5154590;27;20899;-53
2022/12/24 08:20:10;;;;;;;9.90;1.70;;;10.30;1.00;;;;;;5153844;27;20446;-53
2022/12/24 08:22:36;;;;;;;16.00;1.90;;;10.40;99.90;;;;;;5151933;27;20406;-53
2022/12/24 08:25:02;;;;;;;7.68;1.60;;;10.40;99.90;;;;;;5150361;27;20464;-54
2022/12/24 08:27:27;;;;;;;10.00;1.67;;;11.40;99.90;;;;;;5150058;27;20400;-54
2022/12/24 08:29:53;;;;;;;8.80;1.53;;;10.70;72.40;;;;;;5152684;27;20392;-54
2022/12/24 08:32:18;;;;;;;7.57;1.80;;;10.80;1.00;;;;;;5153937;27;20392;-56
2022/12/24 08:34:44;;;;;;;8.13;1.70;;;10.90;1.00;;;;;;5153545;27;20388;-55
2022/12/24 08:37:09;;;;;;;15.00;2.40;;;10.90;99.90;;;;;;5148818;27;20864;-54
2022/12/24 08:39:35;;;;;;;7.45;1.40;;;10.80;99.90;;;;;;5151132;27;20597;-55
2022/12/24 08:42:01;;;;;;;10.10;1.40;;;10.80;99.90;;;;;;5153184;27;21124;-55
2022/12/24 08:44:26;;;;;;;8.60;1.67;;;10.80;99.90;;;;;;5154014;27;20391;-56
2022/12/24 08:46:52;;;;;;;7.50;1.80;;;10.70;99.90;;;;;;5153394;27;20372;-56
2022/12/24 08:49:17;;;;;;;9.57;1.87;;;10.70;99.90;;;;;;5153474;27;20404;-53
2022/12/24 08:51:43;;;;;;;8.95;1.90;;;10.70;99.90;;;;;;5153675;27;20494;-53
2022/12/24 08:54:08;;;;;;;7.25;1.60;;;10.60;99.90;;;;;;5153478;27;20581;-53
2022/12/24 08:56:34;;;;;;;7.30;1.90;;;10.60;99.90;;;;;;5153412;27;20430;-53
2022/12/24 08:59:01;;;;;;;11.93;1.92;;;10.70;99.90;;;;;;5147162;27;20726;-54
2022/12/24 09:01:26;;;;;;;12.98;1.95;;;10.60;99.90;;;;;;5152886;27;20409;-53
2022/12/24 09:03:52;;;;;;;10.10;1.80;;;10.60;99.90;;;;;;5153228;27;20444;-57
2022/12/24 09:06:17;;;;;;;7.60;2.05;;;10.60;99.90;;;;;;5153120;27;20387;-55
2022/12/24 09:08:43;;;;;;;10.77;2.57;;;10.70;99.90;;;;;;5153077;27;20404;-56
2022/12/24 09:11:18;;;;;;;10.60;1.70;;;9.30;99.90;;;;;;5132903;27;20810;-53
2022/12/24 09:13:44;;;;;;;6.93;2.03;;;10.80;99.90;;;;;;5144139;27;20439;-54
2022/12/24 09:16:10;;;;;;;12.98;2.30;;;10.70;99.90;;;;;;5137739;27;20389;-53
2022/12/24 09:18:36;;;;;;;10.52;2.33;;;11.10;99.90;;;;;;5153752;27;20707;-53
2022/12/24 09:21:07;;;;;;;9.83;2.00;;;11.40;75.20;;;;;;5152548;27;20865;-53
2022/12/24 09:23:40;;;;;;;9.77;1.70;;;11.70;1.00;;;;;;5153383;27;20472;-53
2022/12/24 09:26:25;;;;;;;8.65;1.42;;;11.80;1.00;;;;;;5152564;27;20381;-55
2022/12/24 09:28:52;;;;;;;6.47;1.75;;;12.50;99.90;;;;;;5152813;27;20463;-54
2022/12/24 09:31:18;;;;;;;8.15;1.75;;;13.10;99.90;;;;;;5153756;27;20853;-53
2022/12/24 09:33:46;;;;;;;9.93;2.30;;;14.00;99.90;;;;;;5153563;27;20373;-53
2022/12/24 09:36:11;;;;;;;11.35;2.00;;;14.40;1.00;;;;;;5152651;27;20403;-54
2022/12/24 09:38:39;;;;;;;9.98;1.77;;;14.50;1.00;;;;;;5153002;27;20869;-53
2022/12/24 09:41:39;;;;;;;10.10;2.40;;;14.60;1.00;;;;;;5150846;27;20468;-54
2022/12/24 09:44:27;;;;;;;10.50;2.70;;;14.80;1.00;;;;;;5151739;27;20414;-54
2022/12/24 09:46:54;;;;;;;9.57;2.35;;;16.30;1.00;;;;;;5130338;27;20877;-54
2022/12/24 09:49:25;;;;;;;8.18;2.13;;;16.70;1.00;;;;;;5152771;27;20526;-59
2022/12/24 09:52:05;;;;;;;12.20;3.63;;;17.50;1.00;;;;;;5150464;27;20381;-61
2022/12/24 09:54:42;;;;;;;11.52;4.00;;;17.70;1.00;;;;;;5153454;27;20396;-57
2022/12/24 09:57:20;;;;;;;8.57;4.53;;;17.80;1.00;;;;;;5152937;27;20850;-57
2022/12/24 09:59:46;;;;;;;12.63;7.13;;;18.00;1.00;;;;;;5152768;27;20422;-57
2022/12/24 10:02:18;;;;;;;13.02;7.20;;;18.60;1.00;;;;;;5129246;27;20398;-56
2022/12/24 10:04:45;;;;;;;11.00;4.22;;;18.10;1.00;;;;;;5145858;27;20381;-57
2022/12/24 10:07:29;;;;;;;10.02;3.50;;;16.90;1.00;;;;;;5151639;27;20456;-53
2022/12/24 10:10:01;;;;;;;13.15;3.33;;;16.90;1.00;;;;;;5152640;27;20369;-54
2022/12/24 10:12:42;;;;;;;8.43;3.70;;;17.30;1.00;;;;;;5150972;27;20488;-53
2022/12/24 10:15:23;;;;;;;12.43;3.95;;;17.50;1.00;;;;;;5151110;27;20812;-53
2022/12/24 10:18:08;;;;;;;11.95;3.28;;;17.20;1.00;;;;;;5151848;27;20789;-53
2022/12/24 10:20:42;;;;;;;9.80;3.13;;;17.30;1.00;;;;;;5150535;27;20492;-54
2022/12/24 10:23:24;;;;;;;9.93;4.10;;;17.50;1.00;;;;;;5151167;27;20484;-53
2022/12/24 10:26:13;;;;;;;9.88;3.00;;;17.30;1.00;;;;;;5139353;27;20397;-54
2022/12/24 10:29:02;;;;;;;13.57;2.70;;;16.30;1.00;;;;;;5133595;27;20397;-53
2022/12/24 10:31:31;;;;;;;13.88;2.20;;;15.40;1.00;;;;;;5152198;27;20492;-53
2022/12/24 10:34:09;;;;;;;7.53;1.83;;;14.90;1.00;;;;;;5151309;27;20395;-53
2022/12/24 10:36:35;;;;;;;11.15;2.50;;;14.60;1.00;;;;;;5152006;27;20387;-53
2022/12/24 10:39:01;;;;;;;14.23;2.03;;;14.10;1.00;;;;;;5150612;27;20472;-53
2022/12/24 10:41:28;;;;;;;9.40;2.40;;;13.90;1.00;;;;;;5151404;27;20488;-52
2022/12/24 10:43:54;;;;;;;13.32;2.08;;;13.90;1.00;;;;;;5143076;27;20409;-54
2022/12/24 10:46:28;;;;;;;10.93;2.67;;;13.70;1.00;;;;;;5151924;27;20868;-52
2022/12/24 10:48:58;;;;;;;11.02;2.17;;;13.70;1.00;;;;;;5150761;27;20477;-52
2022/12/24 10:51:51;;;;;;;11.35;2.30;;;13.70;1.00;;;;;;5110283;28;20446;-52
2022/12/24 10:54:20;;;;;;;11.77;2.30;;;13.70;1.00;;;;;;5110753;28;20373;-53
2022/12/24 10:56:49;;;;;;;11.15;2.13;;;13.60;1.00;;;;;;5107534;28;20396;-52
2022/12/24 10:59:38;;;;;;;10.88;2.13;;;13.40;1.00;;;;;;5110024;28;20381;-52
2022/12/24 11:02:23;;;;;;;11.13;2.55;;;13.40;1.00;;;;;;5100159;28;20916;-52
2022/12/24 11:04:50;;;;;;;9.97;1.87;;;13.50;1.00;;;;;;5103503;28;20429;-52
2022/12/24 11:07:21;;;;;;;11.73;2.17;;;13.40;1.00;;;;;;5089295;28;20885;-53
2022/12/24 11:10:00;;;;;;;16.35;2.40;;;13.30;1.00;;;;;;5108836;28;20393;-52
2022/12/24 11:12:29;;;;;;;15.90;2.90;;;13.20;1.00;;;;;;5090199;28;20393;-51
2022/12/24 11:15:02;;;;;;;13.57;2.60;;;13.20;1.00;;;;;;5106306;28;20419;-57
2022/12/24 11:17:28;;;;;;;9.35;2.90;;;13.30;1.00;;;;;;5108712;28;20465;-51
2022/12/24 11:19:54;;;;;;;10.93;1.73;;;13.40;1.00;;;;;;5108215;28;20403;-57
2022/12/24 11:22:28;;;;;;;8.00;1.50;;;13.60;1.00;;;;;;5109654;28;20459;-53
2022/12/24 11:25:21;;;;;;;8.43;1.73;;;13.70;1.00;;;;;;5104643;28;20392;-52
2022/12/24 11:27:50;;;;;;;12.80;2.00;;;13.60;1.00;;;;;;5108193;28;20412;-53
2022/12/24 11:30:15;;;;;;;10.20;2.25;;;13.60;1.00;;;;;;5097229;28;20386;-52
2022/12/24 11:32:47;;;;;;;14.93;2.50;;;13.60;1.00;;;;;;5090219;28;20378;-52
2022/12/24 11:35:22;;;;;;;15.05;2.90;;;13.40;1.00;;;;;;5108105;28;20385;-52
2022/12/24 11:37:48;;;;;;;11.35;2.20;;;13.30;1.00;;;;;;5109462;28;20432;-55
2022/12/24 11:40:22;;;;;;;12.90;3.42;;;13.20;1.00;;;;;;5108169;28;21113;-52
2022/12/24 11:42:52;;;;;;;14.15;3.28;;;13.20;1.00;;;;;;5098683;28;20447;-52
2022/12/24 11:45:18;;;;;;;13.20;3.00;;;13.30;1.00;;;;;;5107707;28;20393;-53
2022/12/24 11:47:43;;;;;;;12.82;2.55;;;13.00;1.00;;;;;;5106706;28;20408;-52
2022/12/24 11:50:27;;;;;;;15.00;3.17;;;12.80;1.00;;;;;;5128318;27;20623;-54
2022/12/24 11:53:18;;;;;;;13.15;2.50;;;12.80;11.70;;;;;;5149984;27;20492;-59
2022/12/24 11:55:48;;;;;;;12.90;2.90;;;13.00;35.30;;;;;;5150378;27;20869;-52
2022/12/24 11:58:37;;;;;;;10.18;3.05;;;13.00;10.40;;;;;;5145775;27;20396;-54
2022/12/24 12:01:26;;;;;;;18.05;3.28;;;13.00;12.50;;;;;;5150982;27;20495;-52
2022/12/24 12:04:05;;;;;;;11.63;2.73;;;12.90;5.10;;;;;;5150777;27;20396;-58
2022/12/24 12:06:51;;;;;;;12.45;2.58;;;12.90;84.00;;;;;;5151420;27;20412;-52
2022/12/24 12:09:20;;;;;;;11.03;3.00;;;12.90;99.90;;;;;;5140452;27;20401;-52
2022/12/24 12:11:50;;;;;;;12.93;2.72;;;12.80;99.90;;;;;;5144604;27;20393;-53
2022/12/24 12:14:23;;;;;;;14.35;4.15;;;12.80;99.90;;;;;;5140622;27;20769;-52
2022/12/24 12:17:02;;;;;;;12.38;2.90;;;12.80;99.90;;;;;;5147529;27;20377;-52
2022/12/24 12:19:37;;;;;;;11.00;2.20;;;12.70;1.00;;;;;;5130884;28;20385;-51
2022/12/24 12:22:06;;;;;;;14.13;2.55;;;12.70;1.00;;;;;;5132668;27;20446;-52
2022/12/24 12:24:37;;;;;;;12.85;3.22;;;12.60;99.90;;;;;;5145087;27;20417;-56
2022/12/24 12:27:27;;;;;;;9.50;2.30;;;12.70;99.90;;;;;;5136793;27;20533;-53
2022/12/24 12:30:06;;;;;;;13.13;2.50;;;12.70;99.90;;;;;;5150601;27;20373;-57
2022/12/24 12:32:49;;;;;;;13.43;3.60;;;12.70;99.90;;;;;;5130247;28;20457;-51
2022/12/24 12:35:37;;;;;;;15.85;3.20;;;12.70;99.90;;;;;;5137830;27;20417;-51
2022/12/24 12:38:10;;;;;;;11.60;3.53;;;12.70;99.90;;;;;;5147556;27;20426;-52
2022/12/24 12:41:16;;;;;;;11.73;3.55;;;12.60;99.90;;;;;;5150292;27;20804;-51
2022/12/24 12:44:01;;;;;;;11.73;2.72;;;12.50;99.90;;;;;;5130632;27;20392;-52
2022/12/24 12:47:11;;;;;;;11.95;3.00;;;12.40;1.00;;;;;;5144090;27;20381;-51
2022/12/24 12:49:39;;;;;;;13.13;2.67;;;12.40;1.00;;;;;;5123663;27;20904;-51
2022/12/24 12:52:43;;;;;;;16.83;6.10;;;12.50;1.00;;;;;;5123844;27;20748;-50
2022/12/24 12:55:17;;;;;;;20.02;9.40;;;12.50;1.00;;;;;;5152842;27;20389;-51
2022/12/24 12:57:45;;;;;;;16.15;5.10;;;12.50;11.60;;;;;;5144137;27;20743;-51
2022/12/24 13:00:15;;;;;;;22.77;10.73;;;12.50;99.90;;;;;;5132645;27;20385;-52
2022/12/24 13:03:11;;;;;;;11.77;4.28;;;12.60;99.90;;;;;;5133719;27;20866;-51
2022/12/24 13:05:56;;;;;;;12.05;3.15;;;12.80;1.00;;;;;;5133161;27;20411;-51
2022/12/24 13:08:53;;;;;;;12.45;2.80;;;12.90;88.10;;;;;;5146716;27;20876;-53
2022/12/24 13:11:45;;;;;;;20.73;4.30;;;13.10;1.00;;;;;;5153009;27;20385;-51
2022/12/24 13:14:41;;;;;;;17.30;6.20;;;13.30;1.00;;;;;;5142674;27;20424;-51
2022/12/24 13:17:28;;;;;;;18.67;6.88;;;13.40;99.90;;;;;;5153013;27;20847;-52